Harry Bailey

Chefscout - West Bromwich Albion
25 Nov 2027
Donnerstag
Verarbeitung

Persönlichkeit

Anpassungsfähigkeit (16) Ehrgeiz (2) Kontroverse (2) Loyalität (3) Druck (13) Professionalität (6) Fairness (18) Temperament (1)

Profil

Trainerstil Demokratisch
Lizenz Kontinentale A
Entschlossenheit 11
Menschenführung 5
Motivation 5
Disziplin 13
Arbeitszufriedenheit
86%
Ermüdung
0%
Rolle Chefscout
Gehalt 38.4K p/W
Vertrag 14.03.2029

Leistung

Verhalten Gut
Trainingseffektivität
41%
Spielerentwicklung
60%
Verletzungsprävention
60%
Taktische Umsetzung
65%

Letzte Ereignisse

Nahm an einer Scouting-Besprechung teil jetzt
Empfahl ein Transferziel jetzt
Empfahl ein Transferziel jetzt
Empfahl ein Transferziel jetzt
Empfahl ein Transferziel jetzt
Empfahl ein Transferziel jetzt
Spieler begutachtet 7T her
Spieler begutachtet 7T her

Aktuell beobachtet

287
Spieler Verein Status Fähigkeit Vertrauen Beobachtet Zuletzt beobachtet Letzte Stimme
Aiden Hezarkhani Real Salt Lake Aktiv 91 / 86 40% 3 24.11.2027 -
Mikkel Hope Haugesund Aktiv 105 / 107 40% 4 24.11.2027 -
Axel Tape Bayer Leverkusen Aktiv 127 / 137 40% 2 24.11.2027 -
Honest Ahanor Atalanta Aktiv 137 / 151 40% 9 23.11.2027 -
Camilo Rey Domenech Boca Juniors Aktiv 119 / 135 40% 4 23.11.2027 -
Olivier Mambwa Young Boys Aktiv 106 / 111 40% 1 23.11.2027 -
Ignacio Fernández Boston River Aktiv 89 / 101 40% 4 21.11.2027 -
Somtochuwku Ezenabo Kwara United Aktiv 86 / 99 40% 2 21.11.2027 -
Bahia Criciuma Aktiv 107 / 141 40% 2 18.11.2027 -
Nicolas Sport Recife Aktiv 101 / 95 40% 1 18.11.2027 -
Archie Gray Derby County Aktiv 151 / 148 40% 1 18.11.2027 -
Ayden Heaven Luton Town Aktiv 145 / 160 40% 6 17.11.2027 -
Trey Nyoni Rotherham United Aktiv 133 / 142 40% 6 17.11.2027 -
Narcis Ilaş CFR Cluj Aktiv 110 / 136 40% 1 17.11.2027 -
Christos Mouzakitis Hull City Aktiv 138 / 141 40% 5 16.11.2027 -
Giovanni Leoni Bradford City Aktiv 137 / 133 40% 5 16.11.2027 -
Tiago Parente Benfica Aktiv 107 / 101 40% 2 16.11.2027 -
Lucas Bergvall Tottenham Aktiv 153 / 157 40% 5 13.11.2027 -
Juan Morán Godoy Cruz Aktiv 114 / 94 40% 3 13.11.2027 -
Julián Bazán Philadelphia Union Aktiv 109 / 126 40% 4 11.11.2027 -
Agustín Obregón River Plate Aktiv 119 / 137 40% 2 11.11.2027 -
Matías Gómez Granada Aktiv 119 / 122 40% 3 10.11.2027 -
Jan Bürger Gillingham Aktiv 112 / 112 40% 5 08.11.2027 -
Kaick Minnesota United FC Aktiv 111 / 111 40% 3 08.11.2027 -
Joel Ezra Enyimba Aktiv 95 / 101 40% 5 08.11.2027 -
Malick Yalcouyé Brighton Aktiv 126 / 135 40% 2 07.11.2027 -
Mauro Carrizo Atlético Tucumán Aktiv 106 / 113 40% 5 07.11.2027 -
Olaniyi Saheed Kwara United Aktiv 96 / 103 40% 4 06.11.2027 -
Harry Mills Maritimo Aktiv 96 / 107 40% 2 06.11.2027 -
Josh Torquato FC Dallas Aktiv 88 / 102 40% 1 06.11.2027 -
Celías Ingenthron Vélez Aktiv 108 / 137 40% 4 05.11.2027 -
Aleksandr Guboglo CF Montreal Aktiv 88 / 97 40% 1 05.11.2027 -
Sam Curtis Cambridge United Aktiv 106 / 105 40% 2 04.11.2027 -
Kwaku Agyabeng Sporting Kansas City Aktiv 89 / 78 40% 1 01.11.2027 -
Juan Giménez Celta Aktiv 124 / 117 40% 4 31.10.2027 -
Harbor Miller LA Galaxy Aktiv 102 / 98 40% 3 31.10.2027 -
Hervin Goyes Deportivo Pasto Aktiv 102 / 119 40% 4 29.10.2027 -
Dominik Chong Qui Atlanta United FC Aktiv 90 / 97 40% 4 28.10.2027 -
Chris Rigg Sunderland Aktiv 139 / 145 40% 3 27.10.2027 -
Stanley Wilson AIK Aktiv 90 / 108 40% 2 27.10.2027 -
Fillip Jenssen Riise Stabaek Aktiv 93 / 125 40% 2 26.10.2027 -
Tyson Pearce St. Louis CITY SC Aktiv 94 / 85 40% 6 24.10.2027 -
Jonny Shore New York City Aktiv 95 / 91 40% 3 22.10.2027 -
Matthew Dos Santos New York Red Bulls Aktiv 85 / 99 40% 2 22.10.2027 -
Theodor Lundbergh Malmo FF Aktiv 97 / 115 40% 1 22.10.2027 -
Snyder Brunell Seattle Sounders Aktiv 97 / 97 40% 3 20.10.2027 -
Jens Hjertø-Dahl Hull City Aktiv 125 / 122 40% 3 20.10.2027 -
Uche Jaguar Kwara United Aktiv 90 / 107 40% 2 19.10.2027 -
Ronan Kpakio Cardiff City Aktiv 122 / 121 40% 1 19.10.2027 -
Emiliano Bértoli Patronato Aktiv 93 / 87 40% 3 18.10.2027 -
Gift Udoh Ikorodu City Aktiv 88 / 102 40% 2 17.10.2027 -
Colin Guske Orlando City Aktiv 87 / 102 40% 2 17.10.2027 -
Leny Yoro Manchester United Aktiv 149 / 168 40% 1 14.10.2027 -
Hosea Michael Remo Stars Aktiv 86 / 93 40% 1 14.10.2027 -
Josh King Chelsea Aktiv 144 / 144 40% 6 13.10.2027 -
Matthew Litherland Rotherham United Aktiv 116 / 113 40% 2 12.10.2027 -
Muminhon Bahodirxonov Neftchi Aktiv 87 / 109 40% 2 09.10.2027 -
Nika Kvaratskhelia Tskhinvali Aktiv 85 / 112 40% 1 09.10.2027 -
Dayann Methalie Aston Villa Aktiv 137 / 146 40% 1 08.10.2027 -
Tyler Hall Inter Miami CF Aktiv 91 / 113 40% 2 07.10.2027 -
Diego Vargas San Marcos de Arica Aktiv 86 / 88 40% 1 04.10.2027 -
Eliás Montiel Werder Bremen Aktiv 135 / 140 40% 5 01.10.2027 -
Mohamed Bolivar Barranquilla Aktiv 89 / 94 40% 1 01.10.2027 -
Alejandro Almaraz Nueva Chicago Aktiv 111 / 108 40% 2 27.09.2027 -
Juma Bah Manchester City Aktiv 130 / 138 40% 1 24.09.2027 -
Baye Coulibaly Charlotte Football Club Aktiv 92 / 83 40% 1 23.09.2027 -
Drew Baiera New York City Aktiv 95 / 114 40% 3 22.09.2027 -
Teo Rodríguez Pagano River Plate Aktiv 118 / 117 40% 2 21.09.2027 -
Vitor Reis Manchester City Aktiv 137 / 135 40% 1 18.09.2027 -
Martín Jiménez Audax Italiano Aktiv 101 / 109 40% 2 12.09.2027 -
Frankie Westfield Philadelphia Union Aktiv 102 / 106 40% 1 10.09.2027 -
Tobias Moi Bodo/Glimt Aktiv 102 / 129 40% 1 08.09.2027 -
Ricky Atletico Venezuela Aktiv 92 / 92 40% 1 06.09.2027 -
Santiago Espíndola River Plate Aktiv 98 / 102 40% 1 05.09.2027 -
Zakaria Taifi Orlando City Aktiv 88 / 105 40% 1 05.09.2027 -
José Correa Deportivo Tachira Aktiv 95 / 111 40% 1 04.09.2027 -
Adam Aznou Everton Aktiv 123 / 124 40% 1 02.09.2027 -
Álvaro Navoni Tigre Aktiv 89 / 91 40% 1 01.09.2027 -
Yiandro Raap Ilves Aktiv 93 / 118 40% 2 31.08.2027 -
Adam Bakoune Ospitaletto Aktiv 99 / 114 40% 1 16.08.2027 -
Gopolang Taunyane CR Belouizdad Aktiv 94 / 94 40% 1 16.08.2027 -
Simone Kosijer Triestina Aktiv 98 / 100 40% 4 12.08.2027 -
Rivaldo Grobler Free State Stars Aktiv 96 / 104 40% 2 12.08.2027 -
Chibueze Oputa Rangers International Aktiv 86 / 90 40% 1 10.08.2027 -
Lucas Camejo River Plate Aktiv 80 / 75 40% 1 07.08.2027 -
Tobias Slotsager Casertana Aktiv 114 / 112 40% 1 07.08.2027 -
Pablo Lúcio Bristol City Aktiv 107 / 108 40% 1 07.08.2027 -
Baran Gezek Alanyaspor Aktiv 112 / 98 40% 1 04.08.2027 -
Gonçalo Oliveira Benfica Aktiv 118 / 129 40% 2 03.08.2027 -
Darryl Bakola Padova Aktiv 111 / 130 40% 1 03.08.2027 -
Samuel Lucero Defensa y Justicia Aktiv 115 / 128 40% 1 12.07.2027 -
Joel McGregor Swindon Town Aktiv 98 / 103 40% 2 05.07.2027 -
Liam Roberts Mansfield Town Bericht bereit 115 / 104 83% 1 28.06.2027 -
Tiago Freitas Benfica Aktiv 114 / 116 40% 1 28.06.2027 -
Eduardo Felicíssimo Sporting CP Aktiv 112 / 125 40% 1 28.06.2027 -
Pedro de la Vega FC Dallas Aktiv 133 / 134 66% 1 01.06.2027 Befürworten
Mohamed Belloumi Hull City Aktiv 133 / 134 67% 1 01.06.2027 Befürworten
Stanley Mills Oxford United Aktiv 122 / 136 40% 3 30.05.2027 -
Tshepang Moremi Orlando Pirates Aktiv 116 / 122 40% 2 30.05.2027 -
Marvelous Freedom Ikorodu City Aktiv 89 / 97 40% 1 30.05.2027 -
Leandro Martins Benfica Aktiv 94 / 104 40% 1 30.05.2027 -
Sascha Britschgi Padova Aktiv 121 / 120 40% 1 30.05.2027 -
Giacomo Raspadori Atalanta Aktiv 145 / 145 40% 8 27.05.2027 -
Leif Davis Ipswich Town Aktiv 138 / 139 40% 1 27.05.2027 -
Harry Clarke Preston Aktiv 125 / 138 40% 2 26.05.2027 -
Tyler Goodrham Oxford United Aktiv 122 / 124 40% 1 26.05.2027 -
Kasey McAteer Ipswich Town Aktiv 135 / 116 40% 2 25.05.2027 -
Paris Maghoma Norwich City Aktiv 121 / 124 40% 1 25.05.2027 -
Alex Robertson Cardiff City Aktiv 124 / 110 40% 1 25.05.2027 -
Williams Manyama SuperSport United Aktiv 124 / 104 40% 2 24.05.2027 -
Million Manhoef Stoke City Aktiv 132 / 123 40% 2 24.05.2027 -
Kwame Poku Queens Park Rangers Aktiv 124 / 123 40% 4 23.05.2027 -
Milan van Ewijk Mansfield Town Aktiv 131 / 142 40% 5 22.05.2027 -
Aidan Morris Middlesbrough Aktiv 128 / 128 40% 1 22.05.2027 -
Amine Adli Bournemouth Aktiv 147 / 130 40% 5 21.05.2027 -
Joe Gelhardt Hull City Aktiv 128 / 138 40% 2 21.05.2027 -
Jack Currie Oxford United Aktiv 118 / 128 40% 1 21.05.2027 -
Yeremy Pino Crystal Palace Aktiv 146 / 137 40% 3 20.05.2027 -
Ali Ahmed Norwich City Aktiv 121 / 135 40% 3 20.05.2027 -
Giorgi Chakvetadze Watford Aktiv 132 / 138 40% 2 20.05.2027 -
Rayan Bournemouth Aktiv 132 / 145 40% 2 19.05.2027 -
Georginio Rutter Brighton Aktiv 150 / 147 40% 8 19.05.2027 -
Kevin Fulham Aktiv 152 / 136 40% 4 19.05.2027 -
Yuval Ranon Vitesse Aktiv 94 / 104 40% 2 19.05.2027 -
Morgan Whittaker Middlesbrough Aktiv 129 / 142 40% 4 17.05.2027 -
Enzo Le Fée Sunderland Aktiv 144 / 144 40% 3 17.05.2027 -
Adam Wharton Crystal Palace Aktiv 151 / 167 40% 5 15.05.2027 -
Tomáš Rigo Stoke City Aktiv 126 / 118 40% 3 15.05.2027 -
Othmane Maamma Watford Aktiv 131 / 121 40% 3 14.05.2027 -
Finn Azaz Southampton Aktiv 131 / 135 40% 5 13.05.2027 -
Quinten Timber Crystal Palace Aktiv 152 / 143 40% 5 13.05.2027 -
Fletcher Holman Swindon Town Aktiv 89 / 81 40% 2 13.05.2027 -
Sidiki Chérif Coventry City Aktiv 127 / 146 40% 2 13.05.2027 -
Johan Manzambi Newcastle United Aktiv 143 / 133 40% 1 12.05.2027 -
Keagan Phiri Platinum Stars Aktiv 92 / 105 40% 1 12.05.2027 -
Dango Ouattara Brentford Aktiv 147 / 157 40% 3 09.05.2027 -
Florentino Luís Ipswich Town Aktiv 138 / 137 40% 2 09.05.2027 -
Chineme Chinonso Ikorodu City Aktiv 94 / 96 40% 2 09.05.2027 -
Luke Baartman ES Mostaganem Aktiv 101 / 101 40% 3 09.05.2027 -
Leo Castledine Middlesbrough Aktiv 132 / 146 40% 1 09.05.2027 -
Oswin Appollis Orlando Pirates Aktiv 122 / 101 40% 4 07.05.2027 -
Mpho Khethang AS Police Aktiv 80 / 78 40% 1 07.05.2027 -
Nuno Tavares Lazio Aktiv 149 / 150 40% 1 05.05.2027 -
Matt O'Riley Brighton Aktiv 144 / 149 40% 4 04.05.2027 -
Juanlu Bournemouth Aktiv 146 / 148 40% 1 04.05.2027 -
Ethan Galbraith Swansea City Aktiv 138 / 144 40% 2 03.05.2027 -
Mandla Erasmus SuperSport United Aktiv 113 / 119 40% 6 03.05.2027 -
Mikkel Damsgaard Brentford Aktiv 145 / 144 40% 3 02.05.2027 -
Isaiah Jones Luton Town Aktiv 125 / 132 40% 3 02.05.2027 -
Welington Southampton Aktiv 131 / 141 40% 2 30.04.2027 -
Ben Ahmed Kohili Paradou Aktiv 103 / 101 40% 2 30.04.2027 -
Joseph Abah Remo Stars Aktiv 84 / 87 40% 1 29.04.2027 -
Leonardo Mendicino Bari Aktiv 112 / 120 40% 1 28.04.2027 -
Richard Koné Queens Park Rangers Aktiv 125 / 113 40% 1 27.04.2027 -
Nicolò Zaniolo Udinese Aktiv 146 / 148 40% 1 27.04.2027 -
Gonzalo Fulham Aktiv 141 / 158 40% 4 26.04.2027 -
Tom Fellows Southampton Aktiv 138 / 143 40% 6 26.04.2027 -
Mateus Mané Manchester United Verloren 136 / 153 40% 2 26.04.2027 -
Ruben Ramos LA Galaxy Aktiv 93 / 113 40% 1 26.04.2027 -
Ibrahim Maza Bayer Leverkusen Aktiv 142 / 142 40% 1 25.04.2027 -
Riley Owen Trento Aktiv 100 / 96 40% 1 25.04.2027 -
Amaury Morales Pumas UNAM Aktiv 115 / 126 40% 1 24.04.2027 -
Paco Esteban Virtus Entella Aktiv 94 / 92 40% 1 24.04.2027 -
Abubakar Garba Grasshopper Aktiv 93 / 100 40% 1 24.04.2027 -
Sonny Carey Charlton Athletic Aktiv 124 / 121 40% 2 21.04.2027 -
Scott Twine Bristol City Aktiv 124 / 131 40% 4 19.04.2027 -
Cher Ndour Fiorentina Aktiv 137 / 123 40% 1 19.04.2027 -
Derry Murkin Derby County Aktiv 129 / 125 40% 1 18.04.2027 -
Rodrigo Gomes Wolverhampton Aktiv 135 / 138 40% 4 17.04.2027 -
Ceadach O'Neill Arsenal Aktiv 88 / 89 40% 1 15.04.2027 -
Anestis Mythou PAOK Aktiv 98 / 110 40% 3 14.04.2027 -
Luciano Peluso Giugliano Aktiv 96 / 92 40% 1 14.04.2027 -
Yussif Saidu Zaragoza Aktiv 122 / 119 40% 1 14.04.2027 -
Joseph Arumala Ikorodu City Aktiv 91 / 97 40% 1 14.04.2027 -
Dylan Lawlor Cardiff City Aktiv 110 / 124 40% 1 12.04.2027 -
Lwanda Mbanjwa Maritzburg United Aktiv 96 / 105 40% 2 10.04.2027 -
Zeidane Inoussa Swansea City Aktiv 127 / 136 40% 1 08.04.2027 -
Cian Ashford Cardiff City Aktiv 119 / 131 40% 4 07.04.2027 -
Shea Charles Southampton Aktiv 135 / 145 40% 3 06.04.2027 -
Jason Knight Bristol City Aktiv 132 / 132 40% 1 06.04.2027 -
Bongani Modiba Black Aces Aktiv 113 / 107 40% 2 05.04.2027 -
Tommy Conway Middlesbrough Aktiv 131 / 121 40% 2 02.04.2027 -
Oliver Skipp Leicester City Aktiv 130 / 144 40% 1 01.04.2027 -
Lewis Ferguson Bologna Aktiv 141 / 137 40% 1 31.03.2027 -
Max Bird Birmingham Aktiv 134 / 123 40% 5 29.03.2027 -
Maren Kefas Plateau United Aktiv 87 / 86 40% 1 29.03.2027 -
Josh Tymon Swansea City Aktiv 125 / 112 40% 1 29.03.2027 -
David Turnbull Cardiff City Aktiv 126 / 121 40% 1 29.03.2027 -
Ilyas Ansah Hull City Aktiv 129 / 130 40% 5 28.03.2027 -
Tyrese Campbell Sheffield United Aktiv 132 / 122 40% 4 28.03.2027 -
Kwadwo Baah Watford Aktiv 125 / 128 40% 4 24.03.2027 -
Iwan Morgan Grimsby Town Aktiv 109 / 112 40% 2 22.03.2027 -
Marcelo Allende Mamelodi Sundowns Aktiv 136 / 138 40% 4 22.03.2027 -
Noah Sadiki Sunderland Aktiv 145 / 137 40% 2 22.03.2027 -
Derensili Sanches Fernandes Huddersfield Town Aktiv 130 / 121 40% 2 20.03.2027 -
Aaron Hickey Brentford Aktiv 144 / 158 40% 2 19.03.2027 -
Koki Saito Queens Park Rangers Aktiv 120 / 114 40% 1 17.03.2027 -
Malick Fofana Sunderland Aktiv 144 / 134 40% 1 17.03.2027 -
Hélio Varela Maccabi Tel Aviv Aktiv 120 / 116 40% 2 16.03.2027 -
Will Lankshear Middlesbrough Aktiv 126 / 119 40% 1 10.03.2027 -
Ryan Sessegnon Fulham Aktiv 142 / 156 40% 1 08.03.2027 -
Sayed Abu Farchi Maccabi Tel Aviv Aktiv 123 / 113 40% 1 05.03.2027 -
Adama Goïta Remo Stars Aktiv 92 / 109 40% 1 05.03.2027 -
Federico Serra Arezzo Aktiv 83 / 96 40% 1 04.03.2027 -
Yehor Yarmoliuk Brentford Aktiv 152 / 142 40% 2 02.03.2027 -
Dramane Kamagaté USM Alger Aktiv 105 / 117 40% 1 02.03.2027 -
Adrien Truffert Bournemouth Aktiv 152 / 137 40% 1 01.03.2027 -
Assane Diao Lazio Aktiv 142 / 157 40% 2 26.02.2027 -
Marquinhos Spartak Moscow Aktiv 132 / 109 40% 1 23.02.2027 -
Wilson Isidor Sunderland Aktiv 137 / 147 40% 5 22.02.2027 -
Ronald Swansea City Aktiv 124 / 126 40% 3 21.02.2027 -
Petar Stanić Ludogorets Aktiv 133 / 145 40% 1 19.02.2027 -
Jack Diamond Stockport County Aktiv 117 / 130 40% 1 19.02.2027 -
Jack McGlynn Stoke City Aktiv 136 / 144 40% 1 14.02.2027 -
Christian Krasnodar Aktiv 136 / 141 40% 1 06.02.2027 -
Luis Vázquez Birmingham Aktiv 125 / 129 40% 5 11.01.2027 -
Evidence Makgopa Orlando Pirates Aktiv 112 / 106 40% 1 11.01.2027 -
Raúl Rangel Sporting CP Verhandlung 132 / 132 66% 1 01.01.2027 -
Marcel Ruiz RC Lens Aktiv 140 / 141 66% 1 01.01.2027 Befürworten
Roberto Alvarado Monaco Aktiv 139 / 139 66% 1 01.01.2027 Befürworten
Federico Pereira Estudiantes Aktiv 135 / 135 68% 1 01.01.2027 Befürworten
Mandla Mahlangu Ajax Cape Town Aktiv 114 / 95 40% 3 31.12.2026 -
Sibusiso Tshabalala Polokwane City Aktiv 85 / 83 40% 1 31.12.2026 -
Isaac Essien WAFA Aktiv 94 / 92 40% 3 30.12.2026 -
Lorent Tolaj Plymouth Argyle Aktiv 123 / 117 40% 4 30.12.2026 -
Nicolás Fernández Mercau Shakhtar Aktiv 134 / 128 40% 1 30.12.2026 -
Marlon Gomes Shakhtar Aktiv 132 / 128 40% 1 30.12.2026 -
Tyreece Simpson Maritzburg United Aktiv 97 / 92 40% 1 28.12.2026 -
Robert Mizo Ashanti Gold Aktiv 108 / 108 40% 5 27.12.2026 -
Lassina Traoré Shakhtar Aktiv 120 / 139 40% 1 27.12.2026 -
Tom Cannon Sheffield United Aktiv 129 / 129 40% 2 26.12.2026 -
Japhet Tanganga Sheffield United Aktiv 132 / 141 40% 1 26.12.2026 -
Bobby Thomas Coventry City Aktiv 138 / 120 40% 1 26.12.2026 -
Etiosa Ighodaro Kaizer Chiefs Aktiv 115 / 108 40% 4 24.12.2026 -
Manfred Ugalde Spartak Moscow Aktiv 137 / 113 40% 1 24.12.2026 -
Tomás González Piast Aktiv 106 / 104 40% 1 23.12.2026 -
Themba Ngcobo SuperSport United Aktiv 115 / 100 40% 5 22.12.2026 -
Marezi Portsmouth Aktiv 124 / 115 40% 1 22.12.2026 -
Ruben van Bommel Ferencvaros Aktiv 125 / 128 40% 1 19.12.2026 -
Thiago Brentford Aktiv 142 / 152 40% 1 18.12.2026 -
Kévin Denkey FC Cincinnati Aktiv 132 / 121 40% 1 17.12.2026 -
Bénie Traoré New York City Aktiv 134 / 141 40% 4 16.12.2026 -
Wessam Abou Ali Columbus Crew Aktiv 131 / 110 40% 3 15.12.2026 -
Mathias Jørgensen Blackburn Rovers Aktiv 114 / 108 40% 1 13.12.2026 -
Imrân Louza Watford Aktiv 138 / 129 40% 1 11.12.2026 -
Jonathan Gyan Liberty Professionals Aktiv 99 / 94 40% 1 09.12.2026 -
Mohamed-Ali Cho Hull City Aktiv 137 / 149 40% 1 09.12.2026 -
André Wolverhampton Aktiv 141 / 146 40% 1 09.12.2026 -
Teden Mengi Luton Town Aktiv 119 / 110 40% 1 08.12.2026 -
Jaka Bijol Leeds United Aktiv 145 / 154 40% 1 08.12.2026 -
Kwame Opoku Asante Kotoko Aktiv 96 / 102 40% 3 06.12.2026 -
Yousef Salech Cardiff City Aktiv 133 / 138 40% 3 05.12.2026 -
Jørgen Strand Larsen Crystal Palace Aktiv 150 / 149 40% 1 04.12.2026 -
Bismark Asante Ashanti Gold Aktiv 98 / 98 40% 1 02.12.2026 -
Zeki Amdouni Burnley Aktiv 137 / 129 40% 1 28.11.2026 -
Tomás Chancalay Minnesota United FC Aktiv 129 / 122 40% 3 24.11.2026 -
Nathan Ordaz Metalist Aktiv 110 / 114 40% 1 24.11.2026 -
Rafael Navarro St. Louis CITY SC Aktiv 118 / 136 40% 3 23.11.2026 -
Leonardo Campana New England Revolution Aktiv 124 / 130 40% 1 22.11.2026 -
Nicolò Savona Nottingham Forest Aktiv 138 / 152 40% 1 22.11.2026 -
Óscar Mingueza Crystal Palace Aktiv 152 / 146 40% 1 22.11.2026 -
Kelvin Yeboah Minnesota United FC Aktiv 132 / 131 40% 1 19.11.2026 -
Martín Ojeda Orlando City Aktiv 136 / 116 40% 1 18.11.2026 -
Razvan Balasa Crvena Zvezda Aktiv 158 / 135 40% 2 17.11.2026 -
Joshua Zirkzee Manchester United Aktiv 138 / 146 40% 1 15.11.2026 -
Eddie Nketiah Crystal Palace Aktiv 136 / 125 40% 1 15.11.2026 -
Josh Sargent Toronto FC Aktiv 130 / 138 40% 2 13.11.2026 -
Andrea Pinamonti Lazio Aktiv 145 / 125 40% 1 12.11.2026 -
Ramiro Ruiz Rodríguez Atlético Tucumán Aktiv 119 / 131 40% 1 09.11.2026 -
Victor Olatunji Real Salt Lake Aktiv 115 / 104 40% 1 06.11.2026 -
Brayan León Mamelodi Sundowns Aktiv 113 / 130 40% 1 05.11.2026 -
Dejan Joveljić Seattle Sounders Aktiv 125 / 131 40% 1 04.11.2026 -
Tadeo Allende Inter Miami CF Aktiv 129 / 137 40% 1 03.11.2026 -
Jonás Luna Santa Clara Aktiv 112 / 120 40% 1 26.08.2026 -
Darren Yapi Colorado Rapids Aktiv 105 / 104 40% 1 26.08.2026 -
Miloš Jovičić Zabbar St. Patrick Aktiv 82 / 95 40% 1 25.08.2026 -
Jere Vrcić Birkirkara Aktiv 89 / 93 40% 1 25.08.2026 -
Kimani Stewart-Baynes Colorado Rapids Aktiv 90 / 81 40% 1 12.08.2026 -
Marcus Caldeira Minnesota United FC Aktiv 93 / 85 40% 1 11.08.2026 -
Harvey Sarajian Orlando City Aktiv 95 / 82 40% 1 11.08.2026 -
Johnmark Atule Shooting Stars Aktiv 79 / 89 40% 1 09.08.2026 -
Rayan Elloumi Vancouver Whitecaps Aktiv 81 / 72 40% 1 08.08.2026 -
Micah Burton Austin FC Aktiv 77 / 84 40% 1 06.08.2026 -
Oladimeji Dada Ikorodu City Aktiv 91 / 91 40% 1 06.08.2026 -
Augustine Nwaorisa Enyimba Aktiv 89 / 100 40% 1 04.08.2026 -
Eddy Davis Philadelphia Union Aktiv 84 / 93 40% 1 04.08.2026 -
Alex Harris Colorado Rapids Aktiv 88 / 81 40% 1 02.08.2026 -